Time;durP1;ratioP1;P1;durP2;ratioP2;P2;SDS_P1;SDS_P2;PMS_P1;PMS_P2;Temp;Humidity;BMP_temperature;BMP_pressure;BME280_temperature;BME280_humidity;BME280_pressure;Samples;Min_cycle;Max_cycle;Signal;HPM_P1;HPM_P2
2023/07/04 00:00:49;;;;;;;5.20;3.55;;;;;;;;;;6252481;23;20248;-93
2023/07/04 00:03:17;;;;;;;3.78;3.10;;;;;;;;;;6248729;23;20244;-92
2023/07/04 00:05:50;;;;;;;4.45;3.97;;;;;;;;;;6250658;23;20244;-93
2023/07/04 00:08:17;;;;;;;4.00;3.55;;;;;;;;;;6248280;23;20575;-93
2023/07/04 00:10:45;;;;;;;4.55;2.90;;;;;;;;;;6250315;23;20184;-92
2023/07/04 00:13:12;;;;;;;4.05;3.60;;;;;;;;;;6248526;23;20165;-92
2023/07/04 00:15:45;;;;;;;4.35;3.55;;;;;;;;;;6249466;23;20207;-93
2023/07/04 00:18:14;;;;;;;4.18;3.60;;;;;;;;;;6248764;23;20193;-92
2023/07/04 00:20:42;;;;;;;5.75;3.65;;;;;;;;;;6259398;22;20218;-91
2023/07/04 00:23:11;;;;;;;3.70;3.40;;;;;;;;;;6273432;22;20157;-91
2023/07/04 00:25:39;;;;;;;4.25;2.88;;;;;;;;;;6273394;22;20149;-91
2023/07/04 00:28:06;;;;;;;4.03;3.47;;;;;;;;;;6273473;22;20177;-92
2023/07/04 00:30:34;;;;;;;3.63;2.50;;;;;;;;;;6273133;22;20168;-91
2023/07/04 00:33:02;;;;;;;3.58;2.45;;;;;;;;;;6273064;22;20153;-91
2023/07/04 00:35:30;;;;;;;3.85;2.80;;;;;;;;;;6262838;22;20193;-92
2023/07/04 00:37:58;;;;;;;5.38;3.00;;;;;;;;;;6257655;23;20180;-92
2023/07/04 00:40:29;;;;;;;3.03;2.40;;;;;;;;;;6255562;23;20173;-93
2023/07/04 00:43:02;;;;;;;3.00;2.67;;;;;;;;;;6256174;23;20184;-92
2023/07/04 00:45:31;;;;;;;3.33;2.42;;;;;;;;;;6255484;23;20189;-93
2023/07/04 00:48:01;;;;;;;3.95;2.50;;;;;;;;;;6256443;23;20189;-93
2023/07/04 00:50:32;;;;;;;3.58;2.08;;;;;;;;;;6253863;23;20200;-94
2023/07/04 00:53:04;;;;;;;3.58;1.73;;;;;;;;;;6253583;23;20178;-93
2023/07/04 00:55:37;;;;;;;2.00;1.80;;;;;;;;;;6254686;23;20189;-93
2023/07/04 00:58:05;;;;;;;2.67;1.95;;;;;;;;;;6252317;23;20165;-92
2023/07/04 01:00:35;;;;;;;3.15;2.45;;;;;;;;;;6259524;23;20173;-94
2023/07/04 01:03:06;;;;;;;2.80;2.30;;;;;;;;;;6254044;23;20165;-93
2023/07/04 01:05:41;;;;;;;5.50;2.50;;;;;;;;;;6254967;23;20216;-93
2023/07/04 01:08:13;;;;;;;3.08;2.15;;;;;;;;;;6253048;23;20184;-93
2023/07/04 01:10:44;;;;;;;2.40;2.20;;;;;;;;;;6253888;23;20488;-92
2023/07/04 01:13:33;;;;;;;3.20;2.45;;;;;;;;;;6256102;23;20149;-93
2023/07/04 01:16:02;;;;;;;4.43;2.53;;;;;;;;;;6253269;23;20509;-92
2023/07/04 01:18:30;;;;;;;3.53;2.05;;;;;;;;;;6254369;23;20257;-93
2023/07/04 01:21:00;;;;;;;2.80;2.53;;;;;;;;;;6252442;23;20196;-92
2023/07/04 01:23:34;;;;;;;2.38;2.17;;;;;;;;;;6254190;23;20189;-92
2023/07/04 01:26:20;;;;;;;3.70;2.70;;;;;;;;;;6250929;23;20192;-94
2023/07/04 01:28:51;;;;;;;2.88;2.20;;;;;;;;;;6251108;23;20303;-93
2023/07/04 01:31:20;;;;;;;2.42;2.08;;;;;;;;;;6249722;23;20180;-93
2023/07/04 01:33:48;;;;;;;4.40;2.63;;;;;;;;;;6249816;23;20189;-93
2023/07/04 01:36:17;;;;;;;2.50;2.22;;;;;;;;;;6247819;23;20177;-93
2023/07/04 01:38:45;;;;;;;3.53;2.38;;;;;;;;;;6251715;23;20568;-93
2023/07/04 01:41:15;;;;;;;4.85;3.22;;;;;;;;;;6252774;23;20619;-93
2023/07/04 01:43:43;;;;;;;5.57;2.97;;;;;;;;;;6249764;23;20193;-92
2023/07/04 01:46:11;;;;;;;4.00;2.60;;;;;;;;;;6259427;23;20169;-92
2023/07/04 01:48:39;;;;;;;3.60;2.53;;;;;;;;;;6269135;23;20193;-92
2023/07/04 01:51:06;;;;;;;3.22;2.83;;;;;;;;;;6270834;22;20177;-93
2023/07/04 01:53:34;;;;;;;4.18;2.10;;;;;;;;;;6272664;22;20205;-92
2023/07/04 01:56:01;;;;;;;2.83;2.33;;;;;;;;;;6274447;22;20177;-92
2023/07/04 01:58:30;;;;;;;2.60;2.00;;;;;;;;;;6274857;22;20154;-92
2023/07/04 02:00:58;;;;;;;1.90;1.60;;;;;;;;;;6274727;22;20165;-92
2023/07/04 02:03:26;;;;;;;2.58;2.25;;;;;;;;;;6274456;22;20222;-91
2023/07/04 02:05:53;;;;;;;1.75;1.55;;;;;;;;;;6275011;22;20158;-92
2023/07/04 02:08:21;;;;;;;2.42;1.38;;;;;;;;;;6274047;22;20207;-91
2023/07/04 02:10:48;;;;;;;3.42;1.80;;;;;;;;;;6274840;22;20158;-91
2023/07/04 02:13:16;;;;;;;2.50;2.28;;;;;;;;;;6274817;22;20216;-91
2023/07/04 02:15:45;;;;;;;3.22;2.17;;;;;;;;;;6274617;22;20172;-91
2023/07/04 02:18:12;;;;;;;5.95;2.95;;;;;;;;;;6273640;22;20161;-90
2023/07/04 02:20:40;;;;;;;4.05;2.30;;;;;;;;;;6274650;22;20165;-92
2023/07/04 02:23:08;;;;;;;2.72;2.15;;;;;;;;;;6274217;22;20247;-93
2023/07/04 02:25:39;;;;;;;2.38;1.45;;;;;;;;;;6274093;22;20180;-92
2023/07/04 02:28:07;;;;;;;3.22;2.30;;;;;;;;;;6266887;22;20169;-93
2023/07/04 02:30:35;;;;;;;1.50;1.40;;;;;;;;;;6248934;23;20181;-91
2023/07/04 02:33:04;;;;;;;1.52;1.42;;;;;;;;;;6250589;23;20579;-91
2023/07/04 02:35:32;;;;;;;1.80;1.60;;;;;;;;;;6250785;23;20212;-92
2023/07/04 02:37:59;;;;;;;2.90;2.15;;;;;;;;;;6247708;23;20248;-91
2023/07/04 02:40:27;;;;;;;1.60;1.50;;;;;;;;;;6247924;23;20193;-93
2023/07/04 02:42:54;;;;;;;2.00;1.80;;;;;;;;;;6250000;23;20181;-92
2023/07/04 02:45:22;;;;;;;2.50;2.08;;;;;;;;;;6254305;23;20216;-92
2023/07/04 02:47:50;;;;;;;2.97;1.48;;;;;;;;;;6255027;23;20228;-92
2023/07/04 02:50:19;;;;;;;1.42;1.23;;;;;;;;;;6250334;23;20611;-91
2023/07/04 02:52:46;;;;;;;2.33;2.13;;;;;;;;;;6248811;23;20234;-93
2023/07/04 02:55:14;;;;;;;1.98;1.50;;;;;;;;;;6248014;23;20208;-92
2023/07/04 02:57:42;;;;;;;2.80;1.80;;;;;;;;;;6247888;23;20554;-92
2023/07/04 03:00:11;;;;;;;1.90;1.65;;;;;;;;;;6249732;23;20185;-92
2023/07/04 03:02:39;;;;;;;4.05;1.77;;;;;;;;;;6247487;23;20185;-92
2023/07/04 03:05:07;;;;;;;1.95;1.40;;;;;;;;;;6246585;23;20224;-93
2023/07/04 03:07:37;;;;;;;1.45;1.35;;;;;;;;;;6247342;23;20244;-92
2023/07/04 03:10:05;;;;;;;3.22;1.80;;;;;;;;;;6246822;23;20268;-92
2023/07/04 03:12:32;;;;;;;1.73;1.38;;;;;;;;;;6251720;23;20169;-93
2023/07/04 03:15:00;;;;;;;1.73;1.63;;;;;;;;;;6246630;23;20269;-93
2023/07/04 03:17:28;;;;;;;1.45;1.25;;;;;;;;;;6246918;23;20564;-93
2023/07/04 03:19:55;;;;;;;2.03;1.60;;;;;;;;;;6247060;23;20173;-92
2023/07/04 03:22:23;;;;;;;3.10;1.75;;;;;;;;;;6262865;23;20153;-91
2023/07/04 03:24:52;;;;;;;1.92;1.63;;;;;;;;;;6273101;23;20197;-92
2023/07/04 03:27:19;;;;;;;1.90;1.63;;;;;;;;;;6273907;22;20168;-92
2023/07/04 03:29:47;;;;;;;3.33;1.80;;;;;;;;;;6273890;23;20200;-91
2023/07/04 03:32:14;;;;;;;2.00;1.58;;;;;;;;;;6273567;23;20157;-92
2023/07/04 03:34:42;;;;;;;1.58;1.40;;;;;;;;;;6268227;23;20196;-92
2023/07/04 03:37:10;;;;;;;1.90;1.75;;;;;;;;;;6250280;23;20169;-91
2023/07/04 03:39:37;;;;;;;2.05;1.85;;;;;;;;;;6249895;23;20581;-93
2023/07/04 03:42:07;;;;;;;3.30;1.77;;;;;;;;;;6250698;23;20195;-92
2023/07/04 03:44:35;;;;;;;1.77;1.60;;;;;;;;;;6247129;23;20212;-92
2023/07/04 03:47:03;;;;;;;1.70;1.60;;;;;;;;;;6247185;23;20173;-92
2023/07/04 03:49:30;;;;;;;2.13;1.65;;;;;;;;;;6246467;23;20227;-92
2023/07/04 03:51:58;;;;;;;1.45;1.25;;;;;;;;;;6247044;23;20207;-92
2023/07/04 03:54:26;;;;;;;2.08;1.85;;;;;;;;;;6245619;23;20661;-92
2023/07/04 03:56:53;;;;;;;2.13;1.40;;;;;;;;;;6246275;23;20240;-92
2023/07/04 03:59:22;;;;;;;2.50;2.28;;;;;;;;;;6246577;23;20189;-92
2023/07/04 04:01:50;;;;;;;1.90;1.70;;;;;;;;;;6246638;23;20170;-91
2023/07/04 04:04:19;;;;;;;1.67;1.58;;;;;;;;;;6246159;23;20235;-92
2023/07/04 04:06:48;;;;;;;2.38;2.17;;;;;;;;;;6246380;23;20196;-93
2023/07/04 04:09:16;;;;;;;1.67;1.45;;;;;;;;;;6245966;23;20169;-93
2023/07/04 04:11:44;;;;;;;3.20;1.90;;;;;;;;;;6246764;23;20188;-93
2023/07/04 04:14:12;;;;;;;4.50;1.95;;;;;;;;;;6245724;23;20189;-91
2023/07/04 04:16:41;;;;;;;3.53;2.20;;;;;;;;;;6246391;23;20245;-92
2023/07/04 04:19:08;;;;;;;1.83;1.73;;;;;;;;;;6246001;23;20515;-93
2023/07/04 04:21:36;;;;;;;1.70;1.60;;;;;;;;;;6246093;23;20248;-93
2023/07/04 04:24:04;;;;;;;2.58;1.70;;;;;;;;;;6246066;23;20718;-92
2023/07/04 04:26:38;;;;;;;3.47;1.48;;;;;;;;;;6249115;23;20184;-92
2023/07/04 04:29:06;;;;;;;1.90;1.67;;;;;;;;;;6248922;22;20180;-93
2023/07/04 04:31:37;;;;;;;1.50;1.40;;;;;;;;;;6249825;23;20211;-92
2023/07/04 04:34:06;;;;;;;1.90;1.58;;;;;;;;;;6245481;23;20268;-92
2023/07/04 04:36:34;;;;;;;1.58;1.48;;;;;;;;;;6246099;23;20211;-92
2023/07/04 04:39:02;;;;;;;1.58;1.48;;;;;;;;;;6246543;23;20184;-93
2023/07/04 04:41:30;;;;;;;1.30;1.20;;;;;;;;;;6246374;23;20185;-92
2023/07/04 04:44:02;;;;;;;2.00;1.75;;;;;;;;;;6246220;23;20189;-92
2023/07/04 04:46:29;;;;;;;2.30;1.50;;;;;;;;;;6247751;23;20223;-92
2023/07/04 04:48:58;;;;;;;1.63;1.50;;;;;;;;;;6246714;23;20224;-93
2023/07/04 04:51:27;;;;;;;1.52;1.30;;;;;;;;;;6246365;23;20184;-93
2023/07/04 04:53:54;;;;;;;1.80;1.70;;;;;;;;;;6245071;23;20212;-92
2023/07/04 04:56:22;;;;;;;1.73;1.60;;;;;;;;;;6245805;23;20208;-93
2023/07/04 04:58:50;;;;;;;2.95;2.08;;;;;;;;;;6246584;23;20248;-93
2023/07/04 05:01:21;;;;;;;3.17;2.17;;;;;;;;;;6245928;23;20236;-92
2023/07/04 05:03:52;;;;;;;1.55;1.42;;;;;;;;;;6245296;23;20242;-92
2023/07/04 05:06:21;;;;;;;2.40;1.95;;;;;;;;;;6245537;23;20176;-92
2023/07/04 05:08:50;;;;;;;1.42;1.30;;;;;;;;;;6245528;23;20197;-92
2023/07/04 05:11:18;;;;;;;3.55;1.98;;;;;;;;;;6245439;23;20268;-91
2023/07/04 05:13:46;;;;;;;5.35;2.63;;;;;;;;;;6246704;23;20220;-92
2023/07/04 05:16:16;;;;;;;1.98;1.75;;;;;;;;;;6245859;23;20363;-92
2023/07/04 05:18:45;;;;;;;2.22;2.05;;;;;;;;;;6253023;23;20619;-93
2023/07/04 05:21:15;;;;;;;2.47;1.85;;;;;;;;;;6256293;23;20197;-93
2023/07/04 05:23:46;;;;;;;2.70;2.00;;;;;;;;;;6258681;23;20193;-93
2023/07/04 05:26:18;;;;;;;1.88;1.77;;;;;;;;;;6257336;23;20184;-93
2023/07/04 05:28:46;;;;;;;10.27;3.03;;;;;;;;;;6260449;23;20161;-92
2023/07/04 05:31:17;;;;;;;3.55;2.40;;;;;;;;;;6264159;23;20199;-93
2023/07/04 05:33:45;;;;;;;4.82;3.47;;;;;;;;;;6256015;23;20196;-93
2023/07/04 05:36:16;;;;;;;4.55;2.83;;;;;;;;;;6258398;23;20188;-93
2023/07/04 05:38:44;;;;;;;4.20;2.60;;;;;;;;;;6261611;23;20168;-92
2023/07/04 05:41:15;;;;;;;2.03;1.83;;;;;;;;;;6267170;22;20153;-94
2023/07/04 05:43:43;;;;;;;3.03;1.80;;;;;;;;;;6274558;22;20176;-93
2023/07/04 05:46:13;;;;;;;2.72;1.77;;;;;;;;;;6274920;22;20154;-94
2023/07/04 05:48:41;;;;;;;2.80;1.83;;;;;;;;;;6274609;22;20165;-93
2023/07/04 05:51:12;;;;;;;1.98;1.75;;;;;;;;;;6274295;22;20177;-93
2023/07/04 05:53:41;;;;;;;3.80;2.08;;;;;;;;;;6274536;22;20177;-94
2023/07/04 05:56:12;;;;;;;3.85;1.95;;;;;;;;;;6275099;22;20156;-95
2023/07/04 05:58:43;;;;;;;2.35;2.10;;;;;;;;;;6274805;22;20149;-93
2023/07/04 06:01:15;;;;;;;3.53;2.50;;;;;;;;;;6274453;22;20145;-93
2023/07/04 06:03:44;;;;;;;2.42;1.95;;;;;;;;;;6274346;22;20200;-93
2023/07/04 06:06:19;;;;;;;2.90;2.35;;;;;;;;;;6274643;22;20157;-95
2023/07/04 06:08:47;;;;;;;3.45;2.33;;;;;;;;;;6274582;22;20157;-94
2023/07/04 06:11:15;;;;;;;3.53;2.10;;;;;;;;;;6273798;22;20173;-93
2023/07/04 06:13:44;;;;;;;3.78;2.15;;;;;;;;;;6274300;22;20216;-93
2023/07/04 06:16:12;;;;;;;1.88;1.73;;;;;;;;;;6274300;22;20157;-93
2023/07/04 06:18:40;;;;;;;9.57;4.60;;;;;;;;;;6274434;22;20150;-93
2023/07/04 06:21:10;;;;;;;3.42;2.63;;;;;;;;;;6274517;22;20180;-93
2023/07/04 06:23:38;;;;;;;3.22;2.20;;;;;;;;;;6274177;22;20173;-94
2023/07/04 06:26:07;;;;;;;5.15;2.67;;;;;;;;;;6274402;22;20154;-93
2023/07/04 06:28:36;;;;;;;3.17;2.22;;;;;;;;;;6274440;22;20220;-92
2023/07/04 06:31:06;;;;;;;4.22;2.20;;;;;;;;;;6273555;22;20212;-94
2023/07/04 06:33:34;;;;;;;3.13;2.65;;;;;;;;;;6274220;22;20164;-92
2023/07/04 06:36:02;;;;;;;5.78;2.25;;;;;;;;;;6274398;22;20157;-94
2023/07/04 06:38:30;;;;;;;3.17;2.22;;;;;;;;;;6274334;22;20169;-94
2023/07/04 06:40:58;;;;;;;6.38;2.58;;;;;;;;;;6273772;22;20149;-93
2023/07/04 06:43:27;;;;;;;4.00;2.63;;;;;;;;;;6273373;22;20174;-94
2023/07/04 06:45:55;;;;;;;2.85;2.10;;;;;;;;;;6274140;22;20168;-94
2023/07/04 06:48:25;;;;;;;3.63;2.97;;;;;;;;;;6274089;22;20169;-94
2023/07/04 06:51:03;;;;;;;3.10;2.22;;;;;;;;;;6274097;22;20142;-94
2023/07/04 06:53:32;;;;;;;2.40;2.15;;;;;;;;;;6273923;22;20175;-94
2023/07/04 06:56:08;;;;;;;6.80;2.90;;;;;;;;;;6226763;22;20273;-81
2023/07/04 06:58:37;;;;;;;4.35;3.00;;;;;;;;;;6218305;23;20570;-83
2023/07/04 07:01:05;;;;;;;2.83;2.35;;;;;;;;;;6241182;23;20590;-82
2023/07/04 07:03:34;;;;;;;4.53;2.67;;;;;;;;;;6248099;23;20173;-82
2023/07/04 07:06:03;;;;;;;4.85;2.85;;;;;;;;;;6249280;23;20252;-81
2023/07/04 07:08:31;;;;;;;3.00;2.80;;;;;;;;;;6248462;23;20169;-81
2023/07/04 07:11:00;;;;;;;3.38;2.45;;;;;;;;;;6248549;23;20529;-80
2023/07/04 07:13:29;;;;;;;2.47;2.20;;;;;;;;;;6248939;23;20208;-81
2023/07/04 07:16:09;;;;;;;5.13;2.50;;;;;;;;;;6249523;23;20248;-81
2023/07/04 07:18:39;;;;;;;4.38;2.70;;;;;;;;;;6248522;23;20188;-82
2023/07/04 07:21:09;;;;;;;5.30;2.50;;;;;;;;;;6248206;23;20581;-82
2023/07/04 07:23:39;;;;;;;3.80;2.40;;;;;;;;;;6249332;23;20173;-82
2023/07/04 07:26:10;;;;;;;3.72;2.13;;;;;;;;;;6248837;23;20184;-80
2023/07/04 07:28:39;;;;;;;5.15;2.92;;;;;;;;;;6249281;23;20267;-82
2023/07/04 07:31:09;;;;;;;3.28;2.75;;;;;;;;;;6248520;23;20274;-80
2023/07/04 07:33:40;;;;;;;3.00;2.10;;;;;;;;;;6248814;23;20690;-81
2023/07/04 07:36:13;;;;;;;3.60;2.47;;;;;;;;;;6249127;23;20217;-81
2023/07/04 07:38:41;;;;;;;4.18;2.85;;;;;;;;;;6249240;23;20173;-81
2023/07/04 07:41:09;;;;;;;2.75;2.10;;;;;;;;;;6249432;23;20778;-80
2023/07/04 07:43:39;;;;;;;6.00;3.05;;;;;;;;;;6249939;23;20252;-82
2023/07/04 07:46:08;;;;;;;2.50;2.17;;;;;;;;;;6248645;23;20251;-81
2023/07/04 07:48:37;;;;;;;6.28;2.55;;;;;;;;;;6248379;23;20570;-83
2023/07/04 07:51:06;;;;;;;3.30;2.72;;;;;;;;;;6248784;23;20271;-83
2023/07/04 07:53:34;;;;;;;6.20;3.13;;;;;;;;;;6248623;23;20193;-82
2023/07/04 07:56:01;;;;;;;8.25;3.88;;;;;;;;;;6249737;23;20643;-82
2023/07/04 07:58:28;;;;;;;6.32;3.03;;;;;;;;;;6248349;23;20575;-82
2023/07/04 08:00:56;;;;;;;3.90;2.40;;;;;;;;;;6248828;23;20276;-80
2023/07/04 08:03:24;;;;;;;2.45;2.25;;;;;;;;;;6247226;23;20208;-84
2023/07/04 08:05:53;;;;;;;2.28;1.98;;;;;;;;;;6247708;23;20680;-80
2023/07/04 08:08:20;;;;;;;3.22;2.50;;;;;;;;;;6247297;23;20600;-81
2023/07/04 08:10:47;;;;;;;2.88;2.30;;;;;;;;;;6247658;23;20235;-82
2023/07/04 08:13:15;;;;;;;3.13;2.25;;;;;;;;;;6247062;23;20247;-82
2023/07/04 08:15:42;;;;;;;3.25;2.25;;;;;;;;;;6247424;23;20173;-83
2023/07/04 08:18:11;;;;;;;2.90;2.70;;;;;;;;;;6247727;23;20560;-84
2023/07/04 08:20:39;;;;;;;3.38;2.78;;;;;;;;;;6247754;23;20224;-81
2023/07/04 08:23:08;;;;;;;6.50;2.50;;;;;;;;;;6247803;23;20656;-84
2023/07/04 08:25:39;;;;;;;3.47;2.67;;;;;;;;;;6247954;23;20177;-83
2023/07/04 08:28:07;;;;;;;2.47;2.25;;;;;;;;;;6247564;23;20608;-82
2023/07/04 08:30:34;;;;;;;2.63;2.33;;;;;;;;;;6247205;23;20220;-83
2023/07/04 08:33:02;;;;;;;3.65;2.80;;;;;;;;;;6247504;23;20702;-82
2023/07/04 08:35:29;;;;;;;2.58;2.28;;;;;;;;;;6246724;23;20522;-83
2023/07/04 08:37:57;;;;;;;4.90;2.63;;;;;;;;;;6247340;23;20213;-83
2023/07/04 08:40:26;;;;;;;2.28;1.98;;;;;;;;;;6248001;23;20557;-84
2023/07/04 08:42:53;;;;;;;4.25;2.83;;;;;;;;;;6248128;23;20251;-84
2023/07/04 08:45:26;;;;;;;2.38;2.17;;;;;;;;;;6247408;23;20208;-84
2023/07/04 08:47:55;;;;;;;2.67;2.40;;;;;;;;;;6248611;23;20215;-84
2023/07/04 08:50:27;;;;;;;3.08;2.40;;;;;;;;;;6248884;23;20200;-80
2023/07/04 08:52:57;;;;;;;2.50;2.20;;;;;;;;;;6249554;23;20657;-81
2023/07/04 08:55:26;;;;;;;2.42;2.22;;;;;;;;;;6250459;23;20232;-82
2023/07/04 08:57:56;;;;;;;3.58;3.28;;;;;;;;;;6249990;23;20188;-81
2023/07/04 09:00:30;;;;;;;6.57;2.92;;;;;;;;;;6248205;23;20525;-84
2023/07/04 09:03:11;;;;;;;2.78;1.67;;;;;;;;;;6248404;23;20263;-81
2023/07/04 09:05:52;;;;;;;2.30;2.10;;;;;;;;;;6252781;23;20212;-82
2023/07/04 09:08:29;;;;;;;2.20;2.00;;;;;;;;;;6252290;23;20163;-81
2023/07/04 09:11:03;;;;;;;2.22;2.03;;;;;;;;;;6251290;23;20197;-81
2023/07/04 09:13:36;;;;;;;3.08;2.35;;;;;;;;;;6251566;23;20233;-82
2023/07/04 09:16:11;;;;;;;4.53;2.50;;;;;;;;;;6251830;23;20190;-83
2023/07/04 09:18:45;;;;;;;3.30;2.50;;;;;;;;;;6252059;23;20236;-84
2023/07/04 09:21:15;;;;;;;5.93;2.60;;;;;;;;;;6252816;23;20228;-81
2023/07/04 09:23:43;;;;;;;4.57;2.83;;;;;;;;;;6252354;23;20205;-81
2023/07/04 09:26:15;;;;;;;2.55;2.38;;;;;;;;;;6252395;23;20244;-80
2023/07/04 09:28:45;;;;;;;4.65;2.53;;;;;;;;;;6252629;23;20162;-81
2023/07/04 09:31:18;;;;;;;3.42;2.38;;;;;;;;;;6250664;23;20656;-82
2023/07/04 09:33:47;;;;;;;2.72;2.45;;;;;;;;;;6250765;23;20260;-82
2023/07/04 09:36:16;;;;;;;2.70;2.15;;;;;;;;;;6250787;23;20177;-81
2023/07/04 09:38:55;;;;;;;2.13;1.90;;;;;;;;;;6251664;23;20177;-83
2023/07/04 09:41:26;;;;;;;3.20;2.00;;;;;;;;;;6252390;23;20264;-83
2023/07/04 09:43:54;;;;;;;3.40;1.98;;;;;;;;;;6252792;23;20153;-81
2023/07/04 09:46:25;;;;;;;2.40;2.20;;;;;;;;;;6252989;23;20177;-85
2023/07/04 09:48:53;;;;;;;4.10;2.80;;;;;;;;;;6251748;23;20193;-83
2023/07/04 09:51:26;;;;;;;3.80;2.08;;;;;;;;;;6251112;23;20703;-82
2023/07/04 09:54:12;;;;;;;3.85;2.33;;;;;;;;;;6252392;23;20181;-81
2023/07/04 09:56:42;;;;;;;2.45;2.25;;;;;;;;;;6252729;23;20161;-82
2023/07/04 09:59:16;;;;;;;3.25;2.92;;;;;;;;;;6251053;23;20185;-81
2023/07/04 10:01:46;;;;;;;3.00;2.65;;;;;;;;;;6252029;23;20203;-83
2023/07/04 10:04:22;;;;;;;3.60;2.78;;;;;;;;;;6251539;23;20671;-83
2023/07/04 10:06:52;;;;;;;3.35;2.17;;;;;;;;;;6251370;23;20188;-81
2023/07/04 10:09:20;;;;;;;3.65;2.83;;;;;;;;;;6250910;23;20170;-81
2023/07/04 10:11:51;;;;;;;3.20;2.67;;;;;;;;;;6252717;23;20177;-82
2023/07/04 10:14:31;;;;;;;2.78;2.58;;;;;;;;;;6250141;23;20208;-81
2023/07/04 10:17:10;;;;;;;2.92;2.63;;;;;;;;;;6251262;23;20169;-82
2023/07/04 10:19:43;;;;;;;4.28;3.22;;;;;;;;;;6248967;23;20200;-80
2023/07/04 10:22:10;;;;;;;2.60;2.40;;;;;;;;;;6247629;23;20197;-84
2023/07/04 10:24:38;;;;;;;2.67;2.47;;;;;;;;;;6247424;23;20230;-83
2023/07/04 10:27:11;;;;;;;3.47;2.42;;;;;;;;;;6247869;23;20207;-84
2023/07/04 10:29:42;;;;;;;3.63;3.08;;;;;;;;;;6248800;23;20200;-83
2023/07/04 10:32:14;;;;;;;4.32;3.45;;;;;;;;;;6248448;23;20249;-84
2023/07/04 10:34:42;;;;;;;3.00;2.30;;;;;;;;;;6248624;23;20182;-84
2023/07/04 10:37:13;;;;;;;3.13;2.83;;;;;;;;;;6250739;23;20234;-83
2023/07/04 10:39:41;;;;;;;4.25;3.75;;;;;;;;;;6251320;23;20275;-82
2023/07/04 10:42:14;;;;;;;3.80;2.65;;;;;;;;;;6251129;23;20184;-81
2023/07/04 10:44:45;;;;;;;3.92;2.70;;;;;;;;;;6251846;23;20233;-83
2023/07/04 10:47:15;;;;;;;4.43;2.92;;;;;;;;;;6251880;23;20239;-83
2023/07/04 10:49:48;;;;;;;4.60;3.78;;;;;;;;;;6252272;23;20197;-81
2023/07/04 10:52:19;;;;;;;3.63;2.97;;;;;;;;;;6252171;23;20260;-85
2023/07/04 10:54:49;;;;;;;3.75;3.08;;;;;;;;;;6251128;23;20275;-85
2023/07/04 10:57:24;;;;;;;3.25;2.90;;;;;;;;;;6253119;23;20177;-86
2023/07/04 10:59:56;;;;;;;4.20;3.10;;;;;;;;;;6252973;23;20231;-84
2023/07/04 11:02:30;;;;;;;3.92;3.53;;;;;;;;;;6250528;23;20537;-84
2023/07/04 11:05:06;;;;;;;7.28;3.38;;;;;;;;;;6252571;23;20157;-84
2023/07/04 11:07:34;;;;;;;2.67;2.47;;;;;;;;;;6251908;23;20507;-84
2023/07/04 11:10:05;;;;;;;3.28;2.97;;;;;;;;;;6252483;23;20197;-85
2023/07/04 11:12:35;;;;;;;4.70;3.08;;;;;;;;;;6251935;23;20168;-84
2023/07/04 11:15:05;;;;;;;4.88;2.70;;;;;;;;;;6252436;23;20204;-84
2023/07/04 11:17:34;;;;;;;3.83;2.92;;;;;;;;;;6251212;23;20222;-84
2023/07/04 11:20:11;;;;;;;4.70;3.92;;;;;;;;;;6251360;23;20193;-84
2023/07/04 11:22:47;;;;;;;3.30;3.00;;;;;;;;;;6250917;23;20161;-81
2023/07/04 11:25:36;;;;;;;2.50;2.30;;;;;;;;;;6248051;23;20213;-81
2023/07/04 11:28:19;;;;;;;3.45;2.38;;;;;;;;;;6248335;23;20190;-81
2023/07/04 11:30:49;;;;;;;3.08;2.75;;;;;;;;;;6249319;23;20193;-83
2023/07/04 11:33:38;;;;;;;3.10;2.80;;;;;;;;;;6248975;23;20196;-81
2023/07/04 11:36:07;;;;;;;5.07;3.65;;;;;;;;;;6248044;23;20257;-81
2023/07/04 11:38:36;;;;;;;3.08;2.85;;;;;;;;;;6251221;23;20646;-86
2023/07/04 11:41:06;;;;;;;3.17;2.85;;;;;;;;;;6252214;23;20235;-83
2023/07/04 11:43:43;;;;;;;3.72;3.42;;;;;;;;;;6249753;23;20179;-86
2023/07/04 11:46:23;;;;;;;3.42;3.13;;;;;;;;;;6249958;23;20247;-85
2023/07/04 11:48:53;;;;;;;3.72;3.42;;;;;;;;;;6250657;23;20161;-84
2023/07/04 11:51:24;;;;;;;3.88;3.47;;;;;;;;;;6250376;23;20247;-84
2023/07/04 11:53:56;;;;;;;3.70;3.05;;;;;;;;;;6250270;23;20184;-85
2023/07/04 11:56:38;;;;;;;5.72;3.58;;;;;;;;;;6250816;23;20187;-85
2023/07/04 11:59:44;;;;;;;5.38;3.83;;;;;;;;;;6250638;23;20212;-86
2023/07/04 12:02:28;;;;;;;3.15;2.92;;;;;;;;;;6251973;23;20655;-85
2023/07/04 12:04:57;;;;;;;4.03;3.63;;;;;;;;;;6251001;23;20158;-86
2023/07/04 12:07:45;;;;;;;6.07;4.30;;;;;;;;;;6251457;23;20173;-85
2023/07/04 12:10:17;;;;;;;4.30;3.42;;;;;;;;;;6250972;23;20248;-85
2023/07/04 12:12:48;;;;;;;4.60;4.13;;;;;;;;;;6251374;23;20161;-86
2023/07/04 12:15:25;;;;;;;5.25;4.03;;;;;;;;;;6248695;23;20628;-85
2023/07/04 12:17:54;;;;;;;4.55;3.72;;;;;;;;;;6249349;23;20161;-85
2023/07/04 12:20:22;;;;;;;4.80;4.28;;;;;;;;;;6250288;23;20229;-85
2023/07/04 12:22:53;;;;;;;4.25;3.67;;;;;;;;;;6250008;23;20251;-82
2023/07/04 12:25:23;;;;;;;3.55;3.25;;;;;;;;;;6250092;23;20240;-84
2023/07/04 12:27:53;;;;;;;5.22;4.28;;;;;;;;;;6248387;23;20574;-83
2023/07/04 12:30:22;;;;;;;5.53;4.20;;;;;;;;;;6247092;23;20268;-84
2023/07/04 12:32:51;;;;;;;4.90;4.38;;;;;;;;;;6247572;23;20252;-85
2023/07/04 12:35:25;;;;;;;4.43;4.00;;;;;;;;;;6248984;23;20200;-84
2023/07/04 12:37:54;;;;;;;5.15;3.78;;;;;;;;;;6248997;23;20211;-85
2023/07/04 12:40:28;;;;;;;4.13;3.72;;;;;;;;;;6249314;23;20638;-85
2023/07/04 12:42:56;;;;;;;4.90;4.13;;;;;;;;;;6248839;23;20169;-82
2023/07/04 12:45:27;;;;;;;3.40;3.10;;;;;;;;;;6247937;23;20288;-83
2023/07/04 12:47:59;;;;;;;3.30;3.00;;;;;;;;;;6249546;23;20177;-83
2023/07/04 12:50:28;;;;;;;4.47;3.95;;;;;;;;;;6250573;23;20280;-81
2023/07/04 12:52:57;;;;;;;4.03;3.35;;;;;;;;;;6251604;23;20173;-80
2023/07/04 12:55:30;;;;;;;6.32;3.58;;;;;;;;;;6251040;23;20261;-82
2023/07/04 12:57:59;;;;;;;3.75;3.40;;;;;;;;;;6251617;23;20520;-81
2023/07/04 13:00:30;;;;;;;4.28;3.88;;;;;;;;;;6250629;23;20201;-83
2023/07/04 13:03:01;;;;;;;5.90;3.72;;;;;;;;;;6250294;23;20240;-81
2023/07/04 13:05:37;;;;;;;4.18;3.88;;;;;;;;;;6249600;23;20495;-80
2023/07/04 13:08:09;;;;;;;3.85;3.55;;;;;;;;;;6250839;23;20168;-82
2023/07/04 13:10:37;;;;;;;5.10;4.10;;;;;;;;;;6251097;23;20730;-81
2023/07/04 13:13:05;;;;;;;3.67;3.38;;;;;;;;;;6250159;23;20177;-81
2023/07/04 13:15:35;;;;;;;4.18;3.35;;;;;;;;;;6249595;23;20603;-81
2023/07/04 13:18:05;;;;;;;3.15;2.95;;;;;;;;;;6249945;23;20509;-82
2023/07/04 13:20:36;;;;;;;5.97;4.80;;;;;;;;;;6249185;23;20197;-82
2023/07/04 13:23:21;;;;;;;3.88;3.50;;;;;;;;;;6249133;23;20170;-80
2023/07/04 13:25:49;;;;;;;4.30;3.58;;;;;;;;;;6250792;23;20225;-82
2023/07/04 13:28:24;;;;;;;4.80;3.58;;;;;;;;;;6249790;23;20209;-82
2023/07/04 13:30:53;;;;;;;4.15;3.67;;;;;;;;;;6250999;23;20227;-81
2023/07/04 13:33:32;;;;;;;4.53;3.88;;;;;;;;;;6249576;23;20223;-81
2023/07/04 13:36:10;;;;;;;3.70;3.35;;;;;;;;;;6249960;23;20177;-82
2023/07/04 13:38:38;;;;;;;4.10;3.67;;;;;;;;;;6251197;23;20180;-82
2023/07/04 13:41:06;;;;;;;2.95;2.72;;;;;;;;;;6248822;23;20193;-86
2023/07/04 13:43:35;;;;;;;4.13;3.20;;;;;;;;;;6248598;23;20576;-85
2023/07/04 13:46:03;;;;;;;4.55;3.45;;;;;;;;;;6248344;23;20173;-85
2023/07/04 13:48:31;;;;;;;3.85;3.33;;;;;;;;;;6248673;23;20204;-85
2023/07/04 13:50:59;;;;;;;3.70;3.35;;;;;;;;;;6249902;23;20197;-87
2023/07/04 13:53:28;;;;;;;3.55;3.25;;;;;;;;;;6249852;23;20196;-85
2023/07/04 13:55:57;;;;;;;3.30;3.00;;;;;;;;;;6250155;23;20235;-85
2023/07/04 13:58:25;;;;;;;4.43;3.47;;;;;;;;;;6249553;23;20200;-85
2023/07/04 14:00:53;;;;;;;3.95;3.58;;;;;;;;;;6249766;23;20251;-85
2023/07/04 14:03:22;;;;;;;3.70;3.40;;;;;;;;;;6248923;23;20253;-85
2023/07/04 14:05:50;;;;;;;4.20;3.80;;;;;;;;;;6251118;23;20229;-86
2023/07/04 14:08:17;;;;;;;3.70;3.40;;;;;;;;;;6250702;23;20699;-85
2023/07/04 14:10:45;;;;;;;4.93;4.30;;;;;;;;;;6250800;23;20228;-84
2023/07/04 14:13:12;;;;;;;3.50;3.20;;;;;;;;;;6250348;23;20224;-86
2023/07/04 14:15:39;;;;;;;3.58;3.28;;;;;;;;;;6249251;23;20193;-84
2023/07/04 14:18:07;;;;;;;7.30;4.63;;;;;;;;;;6248206;23;20199;-85
2023/07/04 14:20:39;;;;;;;4.15;3.85;;;;;;;;;;6249824;23;20217;-86
2023/07/04 14:23:07;;;;;;;3.97;3.38;;;;;;;;;;6250939;23;20161;-85
2023/07/04 14:25:36;;;;;;;4.35;3.95;;;;;;;;;;6249601;23;20173;-86
2023/07/04 14:28:04;;;;;;;4.13;3.72;;;;;;;;;;6251650;23;20212;-84
2023/07/04 14:30:32;;;;;;;4.47;3.28;;;;;;;;;;6252968;23;20276;-83
2023/07/04 14:32:59;;;;;;;3.75;3.35;;;;;;;;;;6252126;23;20177;-82
2023/07/04 14:35:27;;;;;;;3.88;3.33;;;;;;;;;;6251474;23;20734;-84
2023/07/04 14:37:58;;;;;;;5.97;5.38;;;;;;;;;;6251161;23;20261;-83
2023/07/04 14:40:27;;;;;;;4.75;4.35;;;;;;;;;;6251209;23;20208;-82
2023/07/04 14:42:55;;;;;;;4.60;4.20;;;;;;;;;;6252108;23;20488;-84
2023/07/04 14:45:22;;;;;;;5.85;4.60;;;;;;;;;;6251794;23;20200;-83
2023/07/04 14:47:50;;;;;;;4.78;4.28;;;;;;;;;;6250526;23;20212;-82
2023/07/04 14:50:18;;;;;;;5.30;4.80;;;;;;;;;;6252939;23;20193;-85
2023/07/04 14:52:46;;;;;;;4.45;4.05;;;;;;;;;;6253470;23;20660;-85
2023/07/04 14:55:15;;;;;;;4.82;4.43;;;;;;;;;;6252848;23;20236;-85
2023/07/04 14:57:43;;;;;;;3.70;3.40;;;;;;;;;;6253820;23;20729;-83
2023/07/04 15:00:17;;;;;;;5.95;5.35;;;;;;;;;;6252766;23;20203;-84